createdAt,value
2019-02-21T00:00:48.172Z,101457.21
2019-02-21T00:03:19.741Z,101453.61
2019-02-21T00:05:51.191Z,101454.82
2019-02-21T00:08:22.590Z,101457.34
2019-02-21T00:10:53.866Z,101465.77
2019-02-21T00:13:38.295Z,101461.77
2019-02-21T00:16:09.652Z,101467.48
2019-02-21T00:18:41.028Z,101468.06
2019-02-21T00:21:12.604Z,101468.53
2019-02-21T00:23:43.952Z,101468.62
2019-02-21T00:26:15.205Z,101475.32
2019-02-21T00:28:46.750Z,101485.28
2019-02-21T00:31:18.218Z,101476.53
2019-02-21T00:33:49.619Z,101478.16
2019-02-21T00:36:21.968Z,101482.05
2019-02-21T00:38:53.277Z,101481.45
2019-02-21T00:41:24.617Z,101484.20
2019-02-21T00:43:55.965Z,101478.28
2019-02-21T00:46:27.425Z,101480.02
2019-02-21T00:48:58.788Z,101478.67
2019-02-21T00:51:30.096Z,101474.98
2019-02-21T00:54:01.397Z,101476.20
2019-02-21T00:56:32.913Z,101479.95
2019-02-21T00:59:04.326Z,101485.66
2019-02-21T01:01:35.777Z,101481.88
2019-02-21T01:04:07.335Z,101491.47
2019-02-21T01:06:38.762Z,101489.45
2019-02-21T01:09:10.135Z,101492.77
2019-02-21T01:11:41.611Z,101496.24
2019-02-21T01:14:13.078Z,101492.28
2019-02-21T01:16:44.463Z,101491.92
2019-02-21T01:19:15.873Z,101496.96
2019-02-21T01:21:47.178Z,101499.39
2019-02-21T01:24:18.443Z,101499.21
2019-02-21T01:26:50.887Z,101507.27
2019-02-21T01:29:22.315Z,101507.71
2019-02-21T01:31:53.777Z,101510.55
2019-02-21T01:34:25.218Z,101504.83
2019-02-21T01:36:56.550Z,101501.81
2019-02-21T01:39:27.965Z,101490.66
2019-02-21T01:41:59.537Z,101487.33
2019-02-21T01:44:30.790Z,101496.06
2019-02-21T01:47:02.098Z,101492.55
2019-02-21T01:49:33.357Z,101497.59
2019-02-21T01:52:04.747Z,101491.88
2019-02-21T01:54:36.103Z,101494.39
2019-02-21T01:57:07.492Z,101493.49
2019-02-21T01:59:38.749Z,101491.69
2019-02-21T02:02:10.222Z,101488.09
2019-02-21T02:04:41.494Z,101489.43
2019-02-21T02:07:13.006Z,101489.43
2019-02-21T02:09:44.409Z,101499.96
2019-02-21T02:12:17.408Z,101496.36
2019-02-21T02:14:48.857Z,101495.68
2019-02-21T02:17:21.327Z,101499.59
2019-02-21T02:19:52.752Z,101494.50
2019-02-21T02:22:25.325Z,101497.83
2019-02-21T02:24:56.682Z,101493.91
2019-02-21T02:27:28.154Z,101489.32
2019-02-21T02:29:59.541Z,101492.05
2019-02-21T02:32:31.291Z,101485.38
2019-02-21T02:35:02.617Z,101486.22
2019-02-21T02:37:34.117Z,101488.45
2019-02-21T02:40:06.503Z,101490.16
2019-02-21T02:42:37.870Z,101496.67
2019-02-21T02:45:09.290Z,101493.47
2019-02-21T02:47:40.710Z,101496.48
2019-02-21T02:50:12.058Z,101497.91
2019-02-21T02:52:43.591Z,101502.34
2019-02-21T02:55:15.000Z,101504.06
2019-02-21T02:57:47.367Z,101502.26
2019-02-21T03:00:18.789Z,101506.38
2019-02-21T03:02:50.329Z,101513.09
2019-02-21T03:05:21.686Z,101518.48
2019-02-21T03:07:53.179Z,101521.81
2019-02-21T03:10:24.637Z,101520.10
2019-02-21T03:12:56.032Z,101515.98
2019-02-21T03:15:27.319Z,101511.17
2019-02-21T03:17:58.720Z,101509.47
2019-02-21T03:20:30.062Z,101504.37
2019-02-21T03:23:02.979Z,101510.48
2019-02-21T03:25:34.282Z,101516.41
2019-02-21T03:28:05.748Z,101513.98
2019-02-21T03:30:37.080Z,101512.66
2019-02-21T03:33:08.605Z,101512.64
2019-02-21T03:35:40.947Z,101507.00
2019-02-21T03:38:12.465Z,101520.33
2019-02-21T03:40:43.829Z,101524.33
2019-02-21T03:43:15.273Z,101522.63
2019-02-21T03:45:46.559Z,101526.94
2019-02-21T03:48:17.942Z,101529.14
2019-02-21T03:50:49.267Z,101531.75
2019-02-21T03:53:20.661Z,101533.34
2019-02-21T03:55:52.557Z,101532.23
2019-02-21T03:58:24.056Z,101545.13
2019-02-21T04:00:55.562Z,101547.02
2019-02-21T04:03:27.343Z,101541.48
2019-02-21T04:05:58.759Z,101553.60
2019-02-21T04:08:30.122Z,101547.67
2019-02-21T04:11:01.459Z,101546.05
2019-02-21T04:13:32.764Z,101547.86
2019-02-21T04:16:04.671Z,101539.34
2019-02-21T04:18:35.997Z,101543.95
2019-02-21T04:21:07.294Z,101534.41
2019-02-21T04:23:38.636Z,101536.89
2019-02-21T04:26:10.033Z,101530.19
2019-02-21T04:28:41.413Z,101530.62
2019-02-21T04:31:12.664Z,101533.54
2019-02-21T04:33:47.416Z,101542.80
2019-02-21T04:36:18.766Z,101539.59
2019-02-21T04:38:54.518Z,101534.78
2019-02-21T04:41:25.932Z,101536.80
2019-02-21T04:43:58.954Z,101537.42
2019-02-21T04:46:30.382Z,101540.14
2019-02-21T04:49:03.067Z,101539.95
2019-02-21T04:51:36.394Z,101533.65
2019-02-21T04:54:09.393Z,101539.58
2019-02-21T04:56:40.841Z,101546.69
2019-02-21T04:59:12.164Z,101546.88
2019-02-21T05:01:43.752Z,101549.08
2019-02-21T05:04:15.250Z,101545.91
2019-02-21T05:06:46.517Z,101547.30
2019-02-21T05:09:17.857Z,101543.60
2019-02-21T05:11:49.119Z,101549.23
2019-02-21T05:14:20.450Z,101540.94
2019-02-21T05:16:51.707Z,101550.77
2019-02-21T05:19:23.024Z,101545.16
2019-02-21T05:21:54.296Z,101544.77
2019-02-21T05:24:25.642Z,101543.97
2019-02-21T05:26:58.636Z,101551.56
2019-02-21T05:29:29.969Z,101546.77
2019-02-21T05:32:08.784Z,101549.88
2019-02-21T05:34:56.820Z,101556.49
2019-02-21T05:37:35.655Z,101549.38
2019-02-21T05:40:15.619Z,101529.45
2019-02-21T05:42:48.587Z,101526.75
2019-02-21T05:45:37.533Z,101525.05
2019-02-21T05:48:10.434Z,101517.64
2019-02-21T05:50:46.189Z,101523.45
2019-02-21T05:53:36.945Z,101523.85
2019-02-21T05:56:27.996Z,101526.36
2019-02-21T05:59:03.820Z,101534.67
2019-02-21T06:01:37.937Z,101532.66
2019-02-21T06:04:14.019Z,101527.75
2019-02-21T06:06:46.954Z,101529.04
2019-02-21T06:09:19.991Z,101524.83
2019-02-21T06:11:55.878Z,101523.42
2019-02-21T06:14:37.589Z,101519.00
2019-02-21T06:17:10.659Z,101517.09
2019-02-21T06:19:44.701Z,101521.42
2019-02-21T06:22:20.245Z,101530.44
2019-02-21T06:25:02.049Z,101536.02
2019-02-21T06:27:40.737Z,101534.34
2019-02-21T06:30:13.762Z,101539.94
2019-02-21T06:32:45.177Z,101537.30
2019-02-21T06:35:16.506Z,101538.09
2019-02-21T06:37:47.882Z,101539.79
2019-02-21T06:40:19.165Z,101536.56
2019-02-21T06:42:50.476Z,101551.69
2019-02-21T06:45:21.728Z,101545.27
2019-02-21T06:47:53.127Z,101553.19
2019-02-21T06:50:27.110Z,101545.27
2019-02-21T06:52:57.392Z,101540.55
2019-02-21T06:55:28.712Z,101556.17
2019-02-21T06:58:00.144Z,101559.56
2019-02-21T07:00:31.402Z,101566.77
2019-02-21T07:03:02.744Z,101566.95
2019-02-21T07:05:34.005Z,101569.44
2019-02-21T07:08:05.453Z,101572.52
2019-02-21T07:10:36.698Z,101581.81
2019-02-21T07:13:08.010Z,101581.69
2019-02-21T07:15:41.318Z,101583.05
2019-02-21T07:18:12.326Z,101580.94
2019-02-21T07:20:43.644Z,101581.62
2019-02-21T07:23:15.045Z,101581.58
2019-02-21T07:25:50.635Z,101577.94
2019-02-21T07:28:21.988Z,101576.00
2019-02-21T07:30:53.458Z,101583.30
2019-02-21T07:33:28.786Z,101582.98
2019-02-21T07:35:57.768Z,101584.47
2019-02-21T07:38:29.164Z,101585.23
2019-02-21T07:41:00.467Z,101585.09
2019-02-21T07:43:32.114Z,101585.86
2019-02-21T07:46:03.467Z,101574.45
2019-02-21T07:48:36.617Z,101578.41
2019-02-21T07:51:08.213Z,101594.45
2019-02-21T07:53:39.545Z,101598.72
2019-02-21T07:56:10.874Z,101597.36
2019-02-21T07:58:42.196Z,101603.92
2019-02-21T08:01:13.458Z,101611.80
2019-02-21T08:03:48.109Z,101604.88
2019-02-21T08:06:19.630Z,101607.34
2019-02-21T08:08:50.802Z,101607.77
2019-02-21T08:11:22.171Z,101607.88
2019-02-21T08:13:54.620Z,101615.33
2019-02-21T08:16:25.892Z,101612.16
2019-02-21T08:18:57.231Z,101617.80
2019-02-21T08:21:28.660Z,101618.26
2019-02-21T08:24:00.022Z,101617.77
2019-02-21T08:26:31.373Z,101612.05
2019-02-21T08:29:02.842Z,101617.29
2019-02-21T08:31:34.256Z,101616.72
2019-02-21T08:34:19.758Z,101625.55
2019-02-21T08:36:51.153Z,101625.88
2019-02-21T08:39:22.476Z,101632.42
2019-02-21T08:41:55.229Z,101627.66
2019-02-21T08:44:28.775Z,101626.27
2019-02-21T08:46:59.798Z,101619.77
2019-02-21T08:49:31.294Z,101622.53
2019-02-21T08:52:02.623Z,101619.14
2019-02-21T08:54:33.912Z,101619.53
2019-02-21T08:57:05.276Z,101628.68
2019-02-21T08:59:36.684Z,101627.83
2019-02-21T09:02:08.083Z,101634.53
2019-02-21T09:04:42.675Z,101639.83
2019-02-21T09:07:14.015Z,101639.38
2019-02-21T09:09:45.332Z,101635.81
2019-02-21T09:12:16.600Z,101644.20
2019-02-21T09:14:47.963Z,101645.61
2019-02-21T09:17:19.282Z,101651.30
2019-02-21T09:19:50.700Z,101650.03
2019-02-21T09:22:22.045Z,101650.61
2019-02-21T09:24:53.505Z,101649.72
2019-02-21T09:27:24.830Z,101643.09
2019-02-21T09:29:56.216Z,101641.50
2019-02-21T09:32:27.603Z,101642.47
2019-02-21T09:34:58.911Z,101648.58
2019-02-21T09:37:30.260Z,101647.95
2019-02-21T09:40:01.590Z,101647.81
2019-02-21T09:42:33.182Z,101637.21
2019-02-21T09:45:09.330Z,101631.93
2019-02-21T09:47:40.422Z,101644.42
2019-02-21T09:50:12.884Z,101643.08
2019-02-21T09:52:44.364Z,101636.63
2019-02-21T09:55:18.445Z,101635.80
2019-02-21T09:57:49.774Z,101633.84
2019-02-21T10:00:24.796Z,101637.08
2019-02-21T10:02:56.790Z,101628.83
2019-02-21T10:05:28.233Z,101634.47
2019-02-21T10:07:59.775Z,101635.80
2019-02-21T10:10:31.253Z,101644.14
2019-02-21T10:13:02.638Z,101650.17
2019-02-21T10:15:33.964Z,101652.30
2019-02-21T10:18:05.383Z,101653.56
2019-02-21T10:20:36.718Z,101652.33
2019-02-21T10:23:08.092Z,101651.09
2019-02-21T10:25:41.209Z,101650.67
2019-02-21T10:28:12.574Z,101650.39
2019-02-21T10:30:44.072Z,101655.61
2019-02-21T10:33:15.518Z,101652.13
2019-02-21T10:35:47.793Z,101658.89
2019-02-21T10:38:19.110Z,101655.05
2019-02-21T10:40:50.458Z,101652.52
2019-02-21T10:43:21.857Z,101653.25
2019-02-21T10:45:53.315Z,101651.63
2019-02-21T10:48:25.182Z,101650.30
2019-02-21T10:50:56.638Z,101655.63
2019-02-21T10:53:28.108Z,101661.91
2019-02-21T10:55:59.501Z,101655.63
2019-02-21T10:58:30.919Z,101655.66
2019-02-21T11:01:02.360Z,101648.40
2019-02-21T11:03:34.831Z,101646.45
2019-02-21T11:06:06.229Z,101647.31
2019-02-21T11:08:37.526Z,101645.31
2019-02-21T11:11:10.121Z,101648.51
2019-02-21T11:13:41.466Z,101652.70
2019-02-21T11:16:12.863Z,101651.44
2019-02-21T11:18:44.274Z,101642.34
2019-02-21T11:21:15.886Z,101643.44
2019-02-21T11:23:47.171Z,101638.05
2019-02-21T11:26:18.718Z,101638.09
2019-02-21T11:28:50.143Z,101631.95
2019-02-21T11:31:21.543Z,101621.58
2019-02-21T11:33:53.030Z,101624.04
2019-02-21T11:36:24.619Z,101618.95
2019-02-21T11:38:55.916Z,101619.42
2019-02-21T11:41:27.347Z,101619.97
2019-02-21T11:43:58.633Z,101619.84
2019-02-21T11:46:30.028Z,101612.13
2019-02-21T11:49:01.396Z,101609.87
2019-02-21T11:51:32.775Z,101612.72
2019-02-21T11:54:04.158Z,101610.31
2019-02-21T11:56:35.556Z,101613.16
2019-02-21T11:59:06.918Z,101608.02
2019-02-21T12:01:39.696Z,101609.50
2019-02-21T12:04:11.219Z,101616.27
2019-02-21T12:06:42.640Z,101619.11
2019-02-21T12:09:14.168Z,101619.69
2019-02-21T12:11:45.644Z,101605.31
2019-02-21T12:14:17.011Z,101609.29
2019-02-21T12:16:48.327Z,101601.45
2019-02-21T12:19:19.687Z,101608.64
2019-02-21T12:21:58.722Z,101607.95
2019-02-21T12:24:24.163Z,101604.22
2019-02-21T12:26:55.559Z,101607.77
2019-02-21T12:29:26.879Z,101596.93
2019-02-21T12:31:58.275Z,101600.56
2019-02-21T12:34:29.590Z,101598.44
2019-02-21T12:37:01.077Z,101590.73
2019-02-21T12:39:32.513Z,101592.43
2019-02-21T12:42:04.007Z,101584.84
2019-02-21T12:44:36.325Z,101585.98
2019-02-21T12:47:07.693Z,101588.60
2019-02-21T12:49:39.063Z,101589.20
2019-02-21T12:52:10.512Z,101582.77
2019-02-21T12:54:41.825Z,101581.48
2019-02-21T12:57:13.184Z,101573.02
2019-02-21T12:59:44.663Z,101573.37
2019-02-21T13:02:16.106Z,101568.30
2019-02-21T13:04:47.660Z,101564.64
2019-02-21T13:07:19.129Z,101552.20
2019-02-21T13:09:50.544Z,101556.09
2019-02-21T13:12:21.984Z,101554.81
2019-02-21T13:14:53.357Z,101556.20
2019-02-21T13:17:24.837Z,101549.63
2019-02-21T13:19:56.209Z,101542.84
2019-02-21T13:22:27.577Z,101537.06
2019-02-21T13:25:00.826Z,101534.61
2019-02-21T13:27:33.686Z,101530.78
2019-02-21T13:30:08.804Z,101524.23
2019-02-21T13:32:40.196Z,101530.91
2019-02-21T13:35:12.176Z,101519.52
2019-02-21T13:37:43.736Z,101524.41
2019-02-21T13:40:21.213Z,101515.29
2019-02-21T13:42:52.251Z,101514.26
2019-02-21T13:45:23.648Z,101521.55
2019-02-21T13:47:55.147Z,101524.54
2019-02-21T13:50:26.652Z,101533.67
2019-02-21T13:52:57.934Z,101533.15
2019-02-21T13:55:29.404Z,101539.92
2019-02-21T13:58:00.983Z,101535.64
2019-02-21T14:00:32.407Z,101544.12
2019-02-21T14:03:09.831Z,101546.41
2019-02-21T14:05:43.033Z,101551.33
2019-02-21T14:08:15.547Z,101557.60
2019-02-21T14:10:46.895Z,101544.81
2019-02-21T14:13:18.337Z,101547.91
2019-02-21T14:15:49.834Z,101544.72
2019-02-21T14:18:24.326Z,101540.08
2019-02-21T14:20:54.646Z,101551.48
2019-02-21T14:23:27.986Z,101553.30
2019-02-21T14:25:59.303Z,101556.87
2019-02-21T14:28:30.879Z,101550.66
2019-02-21T14:31:03.412Z,101553.77
2019-02-21T14:33:35.423Z,101555.97
2019-02-21T14:36:15.137Z,101557.80
2019-02-21T14:38:40.994Z,101556.98
2019-02-21T14:41:12.462Z,101545.06
2019-02-21T14:43:43.922Z,101546.48
2019-02-21T14:46:16.815Z,101543.88
2019-02-21T14:48:48.320Z,101542.42
2019-02-21T14:51:19.702Z,101537.80
2019-02-21T14:53:51.052Z,101539.50
2019-02-21T14:56:22.493Z,101537.28
2019-02-21T14:58:54.908Z,101537.16
2019-02-21T15:01:26.972Z,101527.31
2019-02-21T15:03:58.528Z,101531.01
2019-02-21T15:06:32.601Z,101525.00
2019-02-21T15:09:06.378Z,101530.67
2019-02-21T15:11:38.536Z,101526.91
2019-02-21T15:14:10.032Z,101529.88
2019-02-21T15:16:41.306Z,101529.81
2019-02-21T15:19:12.683Z,101536.23
2019-02-21T15:21:44.022Z,101539.70
2019-02-21T15:24:15.437Z,101546.33
2019-02-21T15:26:46.982Z,101543.86
2019-02-21T15:29:18.441Z,101540.97
2019-02-21T15:31:50.108Z,101542.28
2019-02-21T15:34:24.042Z,101541.29
2019-02-21T15:36:55.462Z,101544.76
2019-02-21T15:39:26.792Z,101543.76
2019-02-21T15:41:58.104Z,101551.78
2019-02-21T15:44:29.386Z,101557.13
2019-02-21T15:47:01.030Z,101562.13
2019-02-21T15:49:32.665Z,101559.19
2019-02-21T15:52:04.273Z,101548.31
2019-02-21T15:54:35.754Z,101540.84
2019-02-21T15:57:07.592Z,101546.13
2019-02-21T15:59:39.086Z,101540.25
2019-02-21T16:02:10.465Z,101544.73
2019-02-21T16:04:43.029Z,101548.84
2019-02-21T16:07:14.804Z,101546.63
2019-02-21T16:09:46.279Z,101542.64
2019-02-21T16:12:18.301Z,101544.48
2019-02-21T16:14:49.897Z,101548.39
2019-02-21T16:17:21.326Z,101543.13
2019-02-21T16:19:52.864Z,101554.67
2019-02-21T16:22:24.246Z,101545.78
2019-02-21T16:24:55.589Z,101552.40
2019-02-21T16:27:27.183Z,101555.89
2019-02-21T16:29:58.631Z,101558.45
2019-02-21T16:32:29.925Z,101551.79
2019-02-21T16:35:01.403Z,101548.71
2019-02-21T16:37:32.901Z,101550.94
2019-02-21T16:40:05.517Z,101552.58
2019-02-21T16:42:36.977Z,101553.83
2019-02-21T16:45:12.178Z,101553.88
2019-02-21T16:47:43.752Z,101558.32
2019-02-21T16:50:16.826Z,101560.89
2019-02-21T16:52:48.104Z,101563.03
2019-02-21T16:55:23.995Z,101559.92
2019-02-21T16:57:55.520Z,101568.70
2019-02-21T17:00:38.942Z,101573.02
2019-02-21T17:03:04.009Z,101576.44
2019-02-21T17:05:35.677Z,101582.58
2019-02-21T17:08:08.160Z,101584.30
2019-02-21T17:10:39.661Z,101586.91
2019-02-21T17:13:11.110Z,101594.33
2019-02-21T17:15:42.466Z,101597.68
2019-02-21T17:18:14.069Z,101605.93
2019-02-21T17:20:45.634Z,101608.75
2019-02-21T17:23:22.949Z,101613.20
2019-02-21T17:25:50.451Z,101618.17
2019-02-21T17:28:23.982Z,101622.31
2019-02-21T17:30:56.284Z,101622.63
2019-02-21T17:33:27.717Z,101621.66
2019-02-21T17:36:00.811Z,101616.70
2019-02-21T17:38:32.374Z,101616.70
2019-02-21T17:41:03.815Z,101621.38
2019-02-21T17:43:38.911Z,101618.57
2019-02-21T17:46:11.901Z,101626.36
2019-02-21T17:48:44.565Z,101625.83
2019-02-21T17:51:16.100Z,101630.67
2019-02-21T17:53:47.606Z,101629.20
2019-02-21T17:56:19.039Z,101625.99
2019-02-21T17:58:50.490Z,101629.86
2019-02-21T18:01:21.957Z,101631.02
2019-02-21T18:03:53.406Z,101632.38
2019-02-21T18:06:24.984Z,101631.23
2019-02-21T18:08:57.857Z,101632.52
2019-02-21T18:11:34.270Z,101641.84
2019-02-21T18:14:05.463Z,101650.09
2019-02-21T18:16:37.243Z,101657.08
2019-02-21T18:19:08.776Z,101657.16
2019-02-21T18:21:40.126Z,101655.83
2019-02-21T18:24:11.557Z,101662.02
2019-02-21T18:26:43.088Z,101667.79
2019-02-21T18:29:14.607Z,101667.75
2019-02-21T18:31:46.076Z,101668.65
2019-02-21T18:34:17.479Z,101665.21
2019-02-21T18:36:48.885Z,101675.31
2019-02-21T18:39:20.642Z,101672.16
2019-02-21T18:41:52.242Z,101668.57
2019-02-21T18:44:23.697Z,101660.98
2019-02-21T18:46:55.252Z,101656.81
2019-02-21T18:49:27.187Z,101659.81
2019-02-21T18:51:58.707Z,101658.84
2019-02-21T18:54:30.227Z,101654.78
2019-02-21T18:57:07.566Z,101654.63
2019-02-21T18:59:39.256Z,101656.77
2019-02-21T19:02:11.015Z,101658.80
2019-02-21T19:04:42.533Z,101658.59
2019-02-21T19:07:15.798Z,101660.69
2019-02-21T19:09:48.937Z,101659.72
2019-02-21T19:12:20.383Z,101653.36
2019-02-21T19:14:51.862Z,101651.22
2019-02-21T19:17:23.290Z,101661.17
2019-02-21T19:19:55.737Z,101659.64
2019-02-21T19:22:27.340Z,101667.41
2019-02-21T19:24:58.701Z,101665.53
2019-02-21T19:27:37.030Z,101672.57
2019-02-21T19:30:03.409Z,101663.44
2019-02-21T19:32:38.397Z,101668.94
2019-02-21T19:35:12.181Z,101668.07
2019-02-21T19:37:43.606Z,101671.43
2019-02-21T19:40:15.975Z,101672.44
2019-02-21T19:42:47.527Z,101675.70
2019-02-21T19:45:36.775Z,101672.40
2019-02-21T19:48:26.524Z,101670.56
2019-02-21T19:51:08.552Z,101670.94
2019-02-21T19:53:40.202Z,101670.13
2019-02-21T19:56:11.791Z,101680.94
2019-02-21T19:58:46.429Z,101680.66
2019-02-21T20:01:18.090Z,101683.39
2019-02-21T20:03:52.308Z,101682.13
2019-02-21T20:06:23.836Z,101683.54
2019-02-21T20:08:55.435Z,101683.81
2019-02-21T20:11:26.958Z,101685.70
2019-02-21T20:13:58.420Z,101685.45
2019-02-21T20:16:29.901Z,101692.60
2019-02-21T20:19:01.362Z,101695.31
2019-02-21T20:21:32.841Z,101700.34
2019-02-21T20:24:04.314Z,101710.11
2019-02-21T20:26:35.662Z,101703.83
2019-02-21T20:29:07.044Z,101706.62
2019-02-21T20:31:39.230Z,101708.31
2019-02-21T20:34:12.846Z,101705.89
2019-02-21T20:36:50.967Z,101707.53
2019-02-21T20:39:18.866Z,101715.28
2019-02-21T20:41:53.231Z,101724.73
2019-02-21T20:44:26.741Z,101721.09
2019-02-21T20:46:58.116Z,101710.95
2019-02-21T20:49:29.512Z,101709.74
2019-02-21T20:52:01.163Z,101708.53
2019-02-21T20:54:32.729Z,101713.44
2019-02-21T20:57:04.235Z,101714.76
2019-02-21T20:59:35.809Z,101714.70
2019-02-21T21:02:07.532Z,101718.24
2019-02-21T21:04:39.447Z,101714.70
2019-02-21T21:07:11.122Z,101724.00
2019-02-21T21:09:42.877Z,101726.84
2019-02-21T21:12:14.390Z,101736.83
2019-02-21T21:14:45.948Z,101740.47
2019-02-21T21:17:17.447Z,101745.00
2019-02-21T21:19:50.420Z,101743.31
2019-02-21T21:22:21.769Z,101740.77
2019-02-21T21:24:53.145Z,101744.73
2019-02-21T21:27:24.585Z,101744.89
2019-02-21T21:29:56.082Z,101747.94
2019-02-21T21:32:27.503Z,101753.42
2019-02-21T21:34:58.835Z,101753.99
2019-02-21T21:37:30.379Z,101758.16
2019-02-21T21:40:07.047Z,101756.41
2019-02-21T21:42:38.725Z,101753.09
2019-02-21T21:45:18.412Z,101758.55
2019-02-21T21:47:49.896Z,101753.44
2019-02-21T21:50:23.376Z,101760.11
2019-02-21T21:52:54.900Z,101766.03
2019-02-21T21:55:27.143Z,101765.87
2019-02-21T21:57:58.481Z,101776.44
2019-02-21T22:00:29.899Z,101777.44
2019-02-21T22:03:01.243Z,101774.48
2019-02-21T22:05:32.797Z,101773.85
2019-02-21T22:08:04.643Z,101781.34
2019-02-21T22:10:36.000Z,101788.95
2019-02-21T22:13:07.335Z,101787.22
2019-02-21T22:15:38.891Z,101782.98
2019-02-21T22:18:10.305Z,101785.69
2019-02-21T22:20:42.698Z,101783.94
2019-02-21T22:23:14.057Z,101785.31
2019-02-21T22:25:45.531Z,101792.23
2019-02-21T22:28:16.802Z,101789.02
2019-02-21T22:30:48.112Z,101795.41
2019-02-21T22:33:19.525Z,101797.35
2019-02-21T22:35:52.367Z,101794.61
2019-02-21T22:38:23.727Z,101790.96
2019-02-21T22:40:55.167Z,101789.33
2019-02-21T22:43:26.419Z,101793.66
2019-02-21T22:45:57.965Z,101808.19
2019-02-21T22:48:29.257Z,101807.77
2019-02-21T22:51:00.641Z,101811.36
2019-02-21T22:53:31.924Z,101812.63
2019-02-21T22:56:04.419Z,101816.64
2019-02-21T22:58:44.709Z,101814.37
2019-02-21T23:01:25.353Z,101822.34
2019-02-21T23:04:05.780Z,101821.50
2019-02-21T23:06:56.642Z,101821.02
2019-02-21T23:09:28.392Z,101823.72
2019-02-21T23:12:00.011Z,101822.92
2019-02-21T23:14:32.604Z,101825.14
2019-02-21T23:17:04.295Z,101828.84
2019-02-21T23:19:35.786Z,101822.12
2019-02-21T23:22:07.244Z,101821.81
2019-02-21T23:24:38.618Z,101827.83
2019-02-21T23:27:10.194Z,101830.99
2019-02-21T23:29:41.477Z,101825.48
2019-02-21T23:32:13.036Z,101827.33
2019-02-21T23:34:44.812Z,101835.31
2019-02-21T23:37:16.303Z,101829.73
2019-02-21T23:39:47.666Z,101831.16
2019-02-21T23:42:19.183Z,101823.17
2019-02-21T23:44:50.693Z,101819.63
2019-02-21T23:47:22.098Z,101820.95
2019-02-21T23:49:53.361Z,101808.78
2019-02-21T23:52:24.773Z,101805.91
2019-02-21T23:54:57.947Z,101808.70
2019-02-21T23:57:29.983Z,101809.55
